Time;durP1;ratioP1;P1;durP2;ratioP2;P2;SDS_P1;SDS_P2;PMS_P1;PMS_P2;Temp;Humidity;BMP_temperature;BMP_pressure;BME280_temperature;BME280_humidity;BME280_pressure;Samples;Min_cycle;Max_cycle;Signal;HPM_P1;HPM_P2
2024/04/13 00:00:43;;;;;;;12.40;5.03;;;;;;;13.14;100.00;102855.03;5364725;26;20848;-71
2024/04/13 00:03:09;;;;;;;12.50;4.50;;;;;;;13.24;100.00;102857.56;5353639;26;20239;-71
2024/04/13 00:05:34;;;;;;;11.43;4.77;;;;;;;12.98;100.00;102809.22;5358897;26;20740;-71
2024/04/13 00:08:00;;;;;;;11.47;4.67;;;;;;;12.96;100.00;102811.22;5378710;26;20301;-71
2024/04/13 00:10:25;;;;;;;10.90;4.23;;;;;;;12.93;100.00;102811.56;5354143;26;20247;-71
2024/04/13 00:12:51;;;;;;;10.47;3.40;;;;;;;12.90;100.00;102818.13;5361219;26;20284;-71
2024/04/13 00:15:17;;;;;;;13.20;4.47;;;;;;;12.88;100.00;102812.06;5356500;26;20243;-71
2024/04/13 00:17:43;;;;;;;11.20;4.13;;;;;;;12.95;100.00;102796.91;5357258;26;20329;-71
2024/04/13 00:20:09;;;;;;;8.17;3.57;;;;;;;13.01;100.00;102825.88;5347283;26;20488;-71
2024/04/13 00:22:35;;;;;;;11.90;4.13;;;;;;;12.68;100.00;102765.75;5347821;26;20489;-71
2024/04/13 00:25:02;;;;;;;9.47;4.13;;;;;;;12.99;100.00;102795.59;5356515;26;20523;-71
2024/04/13 00:27:28;;;;;;;10.57;3.80;;;;;;;13.16;100.00;102820.66;5354373;26;20476;-71
2024/04/13 00:29:53;;;;;;;7.50;3.00;;;;;;;13.16;100.00;102804.50;5355892;26;20831;-71
2024/04/13 00:32:19;;;;;;;10.30;3.30;;;;;;;13.11;100.00;102772.69;5345073;26;20816;-71
2024/04/13 00:34:44;;;;;;;9.63;3.47;;;;;;;13.24;100.00;102787.50;5354135;26;20249;-71
2024/04/13 00:37:10;;;;;;;11.23;2.70;;;;;;;13.04;100.00;102758.19;5349036;26;20248;-71
2024/04/13 00:39:37;;;;;;;8.93;4.03;;;;;;;13.36;100.00;102815.00;5354237;26;20242;-71
2024/04/13 00:42:06;;;;;;;10.10;3.53;;;;;;;12.68;100.00;102681.47;5342834;26;20476;-71
2024/04/13 00:44:32;;;;;;;7.03;3.20;;;;;;;13.54;100.00;102802.19;5355952;26;20601;-71
2024/04/13 00:47:04;;;;;;;9.00;2.90;;;;;;;13.38;100.00;102789.56;5347400;26;20489;-71
2024/04/13 00:49:34;;;;;;;8.77;2.70;;;;;;;12.80;100.00;102699.78;5349367;26;20300;-71
2024/04/13 00:51:59;;;;;;;8.33;2.90;;;;;;;13.48;100.00;102786.66;5349916;26;20602;-71
2024/04/13 00:54:28;;;;;;;10.53;2.90;;;;;;;13.50;100.00;102785.50;5350183;26;20480;-72
2024/04/13 00:56:54;;;;;;;8.87;2.57;;;;;;;13.29;100.00;102748.28;5357643;26;20806;-71
2024/04/13 00:59:22;;;;;;;7.43;2.50;;;;;;;12.98;100.00;102685.31;5355624;26;20830;-71
2024/04/13 01:01:49;;;;;;;8.70;2.80;;;;;;;13.43;100.00;102760.25;5351816;26;20597;-71
2024/04/13 01:04:17;;;;;;;6.83;2.03;;;;;;;13.49;100.00;102753.31;5352073;26;20476;-72
2024/04/13 01:06:44;;;;;;;8.00;2.33;;;;;;;13.29;100.00;102709.72;5384311;26;20554;-71
2024/04/13 01:09:10;;;;;;;8.37;2.53;;;;;;;13.43;100.00;102729.75;5353753;26;20489;-71
2024/04/13 01:11:36;;;;;;;6.10;2.13;;;;;;;13.54;100.00;102742.88;5354178;26;20529;-72
2024/04/13 01:14:02;;;;;;;9.27;2.43;;;;;;;13.60;100.00;102755.66;5373545;26;20477;-71
2024/04/13 01:16:29;;;;;;;8.47;2.20;;;;;;;13.63;100.00;102758.00;5352909;26;20281;-71
2024/04/13 01:18:54;;;;;;;9.30;2.53;;;;;;;13.65;100.00;102752.44;5370567;26;20691;-72
2024/04/13 01:21:20;;;;;;;7.80;2.37;;;;;;;13.49;100.00;102735.28;5355680;26;20948;-71
2024/04/13 01:23:49;;;;;;;13.53;2.87;;;;;;;13.57;100.00;102737.97;5354572;26;20238;-71
2024/04/13 01:26:15;;;;;;;7.60;2.17;;;;;;;13.57;100.00;102742.53;5350762;26;20252;-71
2024/04/13 01:28:41;;;;;;;8.10;2.30;;;;;;;13.68;100.00;102747.56;5344836;26;20554;-71
2024/04/13 01:31:08;;;;;;;8.20;2.10;;;;;;;13.51;100.00;102730.56;5353656;26;20808;-71
2024/04/13 01:33:34;;;;;;;9.10;2.47;;;;;;;13.58;100.00;102749.59;5350596;26;20547;-71
2024/04/13 01:36:00;;;;;;;8.60;2.10;;;;;;;13.57;100.00;102739.84;5346836;26;20820;-71
2024/04/13 01:38:26;;;;;;;8.80;2.13;;;;;;;13.66;100.00;102736.09;5354509;26;21180;-71
2024/04/13 01:40:52;;;;;;;6.07;2.03;;;;;;;13.43;100.00;102717.13;5354508;26;20555;-71
2024/04/13 01:43:17;;;;;;;8.53;2.07;;;;;;;13.36;100.00;102704.47;5353294;26;20288;-71
2024/04/13 01:45:42;;;;;;;10.47;2.17;;;;;;;13.07;100.00;102662.72;5356097;26;20295;-71
2024/04/13 01:48:08;;;;;;;11.50;2.67;;;;;;;13.59;100.00;102742.34;5351987;26;20262;-71
2024/04/13 01:50:34;;;;;;;8.30;2.77;;;;;;;13.59;100.00;102739.66;5345554;26;20247;-71
2024/04/13 01:52:59;;;;;;;8.00;1.80;;;;;;;13.24;100.00;102702.09;5345299;26;20331;-71
2024/04/13 01:55:25;;;;;;;7.50;2.50;;;;;;;13.52;100.00;102747.59;5356200;26;20593;-71
2024/04/13 01:57:51;;;;;;;9.30;2.57;;;;;;;13.52;100.00;102750.28;5354659;26;20246;-72
2024/04/13 02:00:17;;;;;;;8.17;2.00;;;;;;;13.18;100.00;102699.28;5350668;26;20964;-71
2024/04/13 02:02:43;;;;;;;11.63;2.20;;;;;;;13.36;100.00;102726.88;5345713;26;20245;-71
2024/04/13 02:05:08;;;;;;;8.00;2.13;;;;;;;13.45;100.00;102736.66;5349964;26;20528;-71
2024/04/13 02:07:33;;;;;;;8.57;2.13;;;;;;;13.36;100.00;102739.53;5356789;26;20367;-71
2024/04/13 02:09:59;;;;;;;8.50;2.00;;;;;;;13.26;100.00;102719.00;5355024;26;20281;-71
2024/04/13 02:12:25;;;;;;;10.17;2.13;;;;;;;13.12;100.00;102692.72;5349730;26;20355;-71
2024/04/13 02:14:51;;;;;;;10.90;2.90;;;;;;;12.75;100.00;102661.75;5350161;26;20377;-71
2024/04/13 02:17:16;;;;;;;7.80;1.73;;;;;;;13.42;100.00;102742.38;5353221;26;20856;-71
2024/04/13 02:19:42;;;;;;;7.53;2.20;;;;;;;13.30;100.00;102725.72;5355754;26;20280;-71
2024/04/13 02:22:07;;;;;;;9.20;2.00;;;;;;;13.32;100.00;102739.88;5354127;26;20243;-71
2024/04/13 02:24:33;;;;;;;7.97;2.27;;;;;;;13.23;100.00;102730.09;5350819;26;20529;-71
2024/04/13 02:26:58;;;;;;;8.23;2.53;;;;;;;12.98;100.00;102699.63;5352553;26;20246;-71
2024/04/13 02:29:25;;;;;;;9.90;2.27;;;;;;;13.14;100.00;102741.03;5351051;26;20763;-71
2024/04/13 02:31:51;;;;;;;14.30;2.47;;;;;;;12.69;100.00;102667.81;5352741;26;20250;-72
2024/04/13 02:34:16;;;;;;;7.30;2.00;;;;;;;13.27;100.00;102773.72;5349910;26;20464;-71
2024/04/13 02:36:42;;;;;;;10.23;2.40;;;;;;;13.20;100.00;102760.06;5356479;26;21239;-71
2024/04/13 02:39:13;;;;;;;8.00;1.90;;;;;;;13.22;100.00;102751.78;5349601;26;20246;-71
2024/04/13 02:41:38;;;;;;;7.97;2.07;;;;;;;13.26;100.00;102747.81;5351974;26;21090;-71
2024/04/13 02:44:04;;;;;;;11.30;2.00;;;;;;;12.92;100.00;102711.06;5352022;26;20476;-71
2024/04/13 02:46:29;;;;;;;9.60;2.40;;;;;;;12.64;100.00;102676.41;5359553;26;20243;-71
2024/04/13 02:48:54;;;;;;;7.70;2.20;;;;;;;12.71;100.00;102676.56;5350158;26;20724;-71
2024/04/13 02:51:20;;;;;;;11.23;2.63;;;;;;;13.10;100.00;102752.16;5360504;26;20296;-71
2024/04/13 02:53:45;;;;;;;11.37;3.00;;;;;;;13.05;100.00;102742.91;5357778;26;20257;-71
2024/04/13 02:56:11;;;;;;;9.77;2.10;;;;;;;12.67;100.00;102677.94;5350376;26;20727;-71
2024/04/13 02:58:37;;;;;;;10.03;2.50;;;;;;;13.19;100.00;102768.31;5359063;26;20648;-71
2024/04/13 03:01:03;;;;;;;7.60;2.20;;;;;;;13.23;100.00;102773.19;5357954;26;20354;-71
2024/04/13 03:03:28;;;;;;;10.70;2.37;;;;;;;13.06;100.00;102748.09;5357093;26;20257;-71
2024/04/13 03:06:04;;;;;;;9.70;2.30;;;;;;;13.00;100.00;102737.16;5351377;26;20570;-71
2024/04/13 03:08:33;;;;;;;10.33;2.10;;;;;;;13.20;100.00;102757.38;5365136;26;20246;-71
2024/04/13 03:11:00;;;;;;;9.73;2.33;;;;;;;12.62;100.00;102666.81;5364294;26;21789;-71
2024/04/13 03:13:27;;;;;;;8.10;2.37;;;;;;;13.06;100.00;102748.09;5392990;26;21175;-71
2024/04/13 03:16:03;;;;;;;11.97;3.00;;;;;;;12.79;100.00;102708.88;5363360;26;20523;-71
2024/04/13 03:18:30;;;;;;;14.43;2.83;;;;;;;13.05;100.00;102754.50;5373031;26;20533;-71
2024/04/13 03:20:56;;;;;;;11.30;2.27;;;;;;;13.03;100.00;102758.38;5365570;26;20593;-71
2024/04/13 03:23:22;;;;;;;10.13;2.67;;;;;;;12.84;100.00;102733.47;5356448;26;20822;-71
2024/04/13 03:25:48;;;;;;;6.93;2.03;;;;;;;13.10;100.00;102792.56;5360698;26;20476;-71
2024/04/13 03:28:13;;;;;;;9.10;2.40;;;;;;;12.70;100.00;102727.88;5357004;26;20895;-71
2024/04/13 03:30:39;;;;;;;9.93;2.80;;;;;;;13.13;100.00;102777.91;5358248;26;20294;-71
2024/04/13 03:33:05;;;;;;;10.23;2.20;;;;;;;12.73;100.00;102709.56;5356830;26;20257;-71
2024/04/13 03:35:37;;;;;;;9.33;2.20;;;;;;;12.64;100.00;102710.53;5351306;26;20238;-72
2024/04/13 03:38:03;;;;;;;9.00;2.67;;;;;;;12.97;100.00;102761.75;5355591;26;23661;-71
2024/04/13 03:40:28;;;;;;;11.27;3.07;;;;;;;13.04;100.00;102760.06;5357670;26;20558;-71
2024/04/13 03:42:54;;;;;;;10.00;2.53;;;;;;;12.34;100.00;102634.00;5355698;26;20238;-71
2024/04/13 03:45:19;;;;;;;12.87;2.83;;;;;;;12.49;100.00;102655.69;5350599;26;20302;-71
2024/04/13 03:47:44;;;;;;;9.77;2.43;;;;;;;12.86;100.00;102693.72;5350870;26;20249;-71
2024/04/13 03:50:10;;;;;;;11.80;2.93;;;;;;;13.01;100.00;102730.75;5356581;26;20604;-71
2024/04/13 03:52:35;;;;;;;9.37;2.63;;;;;;;12.65;100.00;102696.09;5360603;26;20381;-71
2024/04/13 03:55:04;;;;;;;13.33;3.17;;;;;;;13.04;100.00;102743.91;5359786;26;20737;-71
2024/04/13 03:57:30;;;;;;;11.97;2.60;;;;;;;12.88;100.00;102718.66;5356094;26;20741;-71
2024/04/13 03:59:55;;;;;;;10.77;2.40;;;;;;;12.92;100.00;102732.63;5350599;26;20580;-71
2024/04/13 04:02:20;;;;;;;14.40;2.63;;;;;;;12.64;100.00;102715.94;5354757;26;20235;-71
2024/04/13 04:04:46;;;;;;;12.30;2.77;;;;;;;12.97;100.00;102749.13;5355588;26;20284;-71
2024/04/13 04:07:11;;;;;;;10.80;2.57;;;;;;;12.96;100.00;102763.59;5357067;26;20353;-71
2024/04/13 04:09:36;;;;;;;15.63;2.87;;;;;;;12.82;100.00;102735.47;5358683;26;20293;-71
2024/04/13 04:12:02;;;;;;;9.60;2.70;;;;;;;12.92;100.00;102761.41;5361610;26;20720;-71
2024/04/13 04:14:28;;;;;;;11.43;3.03;;;;;;;12.93;100.00;102779.25;5353607;26;20269;-71
2024/04/13 04:16:54;;;;;;;13.77;3.27;;;;;;;12.95;100.00;102778.06;5355731;26;20528;-71
2024/04/13 04:19:19;;;;;;;11.83;2.60;;;;;;;12.71;100.00;102738.50;5380046;26;20244;-71
2024/04/13 04:21:45;;;;;;;12.37;2.73;;;;;;;12.87;100.00;102753.81;5358197;26;20601;-71
2024/04/13 04:24:10;;;;;;;10.20;2.47;;;;;;;12.60;100.00;102704.66;5359435;26;20310;-71
2024/04/13 04:26:36;;;;;;;13.60;2.40;;;;;;;11.70;100.00;102615.66;5351210;26;20278;-71
2024/04/13 04:29:02;;;;;;;8.43;2.60;;;;;;;12.81;100.00;102733.78;5358304;26;20251;-71
2024/04/13 04:31:28;;;;;;;15.63;3.20;;;;;;;12.86;100.00;102744.91;5354408;26;20348;-71
2024/04/13 04:33:53;;;;;;;13.30;3.03;;;;;;;12.85;100.00;102751.31;5355651;26;21027;-71
2024/04/13 04:36:19;;;;;;;13.67;2.90;;;;;;;12.75;100.00;102737.16;5357171;26;20255;-71
2024/04/13 04:38:46;;;;;;;9.87;2.30;;;;;;;12.66;100.00;102730.06;5348723;26;20238;-71
2024/04/13 04:41:12;;;;;;;12.93;2.70;;;;;;;12.81;100.00;102768.78;5367004;26;20598;-71
2024/04/13 04:43:38;;;;;;;13.67;3.07;;;;;;;12.82;100.00;102767.81;5359389;26;20468;-71
2024/04/13 04:46:03;;;;;;;9.83;2.30;;;;;;;12.50;100.00;102717.44;5359938;26;20864;-71
2024/04/13 04:48:29;;;;;;;13.90;3.40;;;;;;;12.77;100.00;102764.75;5347689;26;20238;-71
2024/04/13 04:50:58;;;;;;;14.93;2.90;;;;;;;12.85;100.00;102755.84;5356080;26;20736;-71
2024/04/13 04:53:26;;;;;;;12.60;2.97;;;;;;;12.19;100.00;102647.25;5351112;26;20289;-71
2024/04/13 04:55:52;;;;;;;11.90;3.03;;;;;;;12.62;100.00;102724.19;5355603;26;20464;-71
2024/04/13 04:58:18;;;;;;;9.60;2.70;;;;;;;12.39;100.00;102689.00;5358373;26;20622;-71
2024/04/13 05:00:44;;;;;;;13.27;3.07;;;;;;;12.70;100.00;102752.13;5353532;26;20480;-71
2024/04/13 05:03:09;;;;;;;11.20;2.70;;;;;;;12.50;100.00;102725.53;5352647;26;20351;-71
2024/04/13 05:05:34;;;;;;;14.27;3.87;;;;;;;12.55;100.00;102716.94;5389354;26;20736;-71
2024/04/13 05:08:00;;;;;;;13.57;3.40;;;;;;;12.73;100.00;102768.81;5352833;26;20268;-71
2024/04/13 05:10:28;;;;;;;13.57;2.97;;;;;;;12.58;100.00;102774.00;5355215;26;20238;-71
2024/04/13 05:12:53;;;;;;;14.80;3.37;;;;;;;12.52;100.00;102765.72;5359860;26;20239;-71
2024/04/13 05:15:19;;;;;;;11.83;3.00;;;;;;;12.70;100.00;102782.59;5357622;26;20473;-71
2024/04/13 05:17:44;;;;;;;13.10;2.93;;;;;;;12.04;100.00;102686.56;5351275;26;20548;-71
2024/04/13 05:20:11;;;;;;;16.90;3.47;;;;;;;12.07;100.00;102711.28;5359356;26;20247;-71
2024/04/13 05:22:37;;;;;;;10.00;2.47;;;;;;;12.55;100.00;102784.22;5359399;26;20237;-71
2024/04/13 05:25:03;;;;;;;13.60;3.07;;;;;;;12.55;100.00;102757.31;5357641;26;20563;-71
2024/04/13 05:27:29;;;;;;;9.10;2.70;;;;;;;12.26;100.00;102737.03;5358194;26;20310;-71
2024/04/13 05:29:55;;;;;;;12.93;2.90;;;;;;;12.46;100.00;102793.28;5358189;26;20344;-72
2024/04/13 05:32:21;;;;;;;20.03;3.97;;;;;;;12.15;100.00;102778.56;5346887;26;20522;-71
2024/04/13 05:34:46;;;;;;;11.90;3.10;;;;;;;12.40;100.00;102810.94;5347014;26;20916;-71
2024/04/13 05:37:12;;;;;;;14.13;3.50;;;;;;;12.51;100.00;102820.56;5355273;26;20615;-71
2024/04/13 05:39:37;;;;;;;12.20;3.53;;;;;;;12.05;100.00;102752.78;5360875;26;20293;-71
2024/04/13 05:42:03;;;;;;;10.33;2.70;;;;;;;12.08;100.00;102796.34;5355327;26;20238;-71
2024/04/13 05:44:30;;;;;;;11.83;3.40;;;;;;;12.42;100.00;102835.84;5384301;26;20242;-71
2024/04/13 05:46:55;;;;;;;13.27;2.80;;;;;;;12.50;100.00;102859.22;5385389;26;20274;-71
2024/04/13 05:49:20;;;;;;;14.07;3.27;;;;;;;12.19;100.00;102817.56;5354103;26;20757;-71
2024/04/13 05:51:48;;;;;;;12.03;3.00;;;;;;;12.30;100.00;102826.38;5361698;26;20350;-71
2024/04/13 05:54:13;;;;;;;12.03;3.37;;;;;;;12.39;100.00;102823.56;5358912;26;20262;-71
2024/04/13 05:56:39;;;;;;;15.73;3.67;;;;;;;12.49;100.00;102866.47;5380921;26;20551;-71
2024/04/13 05:59:04;;;;;;;13.80;3.13;;;;;;;12.63;100.00;102878.47;5354985;26;20280;-71
2024/04/13 06:01:31;;;;;;;13.00;3.10;;;;;;;12.65;100.00;102879.16;5358045;26;20250;-71
2024/04/13 06:03:56;;;;;;;10.97;3.40;;;;;;;12.69;100.00;102888.59;5346814;26;20246;-71
2024/04/13 06:06:22;;;;;;;18.30;4.50;;;;;;;12.54;100.00;102879.47;5354032;26;20874;-71
2024/04/13 06:08:48;;;;;;;15.23;3.20;;;;;;;12.41;100.00;102872.69;5352154;26;20294;-71
2024/04/13 06:11:13;;;;;;;10.03;2.67;;;;;;;12.66;100.00;102932.00;5359252;26;20297;-71
2024/04/13 06:13:39;;;;;;;9.80;3.03;;;;;;;12.35;100.00;102862.56;5356855;26;20246;-71
2024/04/13 06:16:04;;;;;;;13.17;2.87;;;;;;;12.51;100.00;102933.63;5356157;26;20284;-71
2024/04/13 06:18:30;;;;;;;11.50;2.83;;;;;;;12.60;100.00;102957.72;5379519;26;20310;-71
2024/04/13 06:20:55;;;;;;;11.70;3.30;;;;;;;12.75;100.00;102970.56;5359086;26;20288;-71
2024/04/13 06:23:21;;;;;;;11.10;3.50;;;;;;;12.79;100.00;102988.97;5352644;26;22676;-71
2024/04/13 06:25:47;;;;;;;15.50;3.33;;;;;;;12.35;100.00;102916.38;5361998;26;20249;-72
2024/04/13 06:28:14;;;;;;;10.70;3.40;;;;;;;12.84;100.00;103002.78;5354455;26;20313;-71
2024/04/13 06:30:42;;;;;;;11.67;3.03;;;;;;;12.39;100.00;102958.13;5360265;26;20543;-71
2024/04/13 06:33:10;;;;;;;12.10;2.97;;;;;;;12.34;100.00;102944.28;5354749;26;20557;-71
2024/04/13 06:35:36;;;;;;;19.17;3.40;;;;;;;12.62;100.00;103023.03;5353672;26;20471;-71
2024/04/13 06:38:03;;;;;;;12.23;3.23;;;;;;;12.81;100.00;103064.19;5349639;26;21093;-71
2024/04/13 06:40:30;;;;;;;12.23;3.23;;;;;;;12.91;100.00;103093.72;5358425;26;20280;-71
2024/04/13 06:42:55;;;;;;;15.87;3.17;;;;;;;12.85;100.00;103073.66;5355850;26;20484;-71
2024/04/13 06:45:20;;;;;;;13.57;3.90;;;;;;;12.87;100.00;103099.44;5358690;26;21070;-71
2024/04/13 06:47:46;;;;;;;12.20;3.13;;;;;;;12.86;100.00;103105.78;5358699;26;20257;-71
2024/04/13 06:50:11;;;;;;;12.20;2.90;;;;;;;12.50;100.00;103013.53;5349794;26;20314;-71
2024/04/13 06:52:37;;;;;;;13.63;4.20;;;;;;;13.11;100.00;103103.25;5353394;26;20767;-72
2024/04/13 06:55:02;;;;;;;21.83;3.77;;;;;;;12.69;100.00;103020.53;5386765;26;20330;-71
2024/04/13 06:57:28;;;;;;;12.33;3.03;;;;;;;12.86;100.00;103002.63;5358771;26;20245;-71
2024/04/13 06:59:53;;;;;;;11.93;2.90;;;;;;;13.23;100.00;102991.47;5356321;26;20461;-71
2024/04/13 07:02:20;;;;;;;17.53;3.90;;;;;;;12.88;100.00;102874.03;5357981;26;20242;-71
2024/04/13 07:04:45;;;;;;;13.60;3.67;;;;;;;13.17;100.00;102846.63;5356265;26;20250;-71
2024/04/13 07:07:11;;;;;;;14.50;3.10;;;;;;;12.97;100.00;102764.44;5356833;26;20478;-71
2024/04/13 07:09:36;;;;;;;17.23;3.43;;;;;;;12.92;100.00;102689.53;5358238;26;20725;-71
2024/04/13 07:12:02;;;;;;;12.90;3.23;;;;;;;12.74;100.00;102616.16;5363454;26;20280;-71
2024/04/13 07:14:27;;;;;;;15.63;3.53;;;;;;;13.17;100.00;102622.16;5360386;26;20430;-71
2024/04/13 07:16:53;;;;;;;16.87;4.47;;;;;;;13.00;100.00;102532.44;5360401;26;20246;-71
2024/04/13 07:19:19;;;;;;;15.07;3.43;;;;;;;13.30;100.00;102533.53;5359331;26;20258;-71
2024/04/13 07:21:44;;;;;;;12.93;3.10;;;;;;;13.31;100.00;102524.47;5357116;26;20506;-71
2024/04/13 07:24:10;;;;;;;13.40;3.57;;;;;;;13.40;100.00;102517.16;5351333;26;20839;-71
2024/04/13 07:26:35;;;;;;;18.97;3.10;;;;;;;12.91;100.00;102452.69;5353542;26;20259;-71
2024/04/13 07:29:01;;;;;;;17.10;3.67;;;;;;;13.50;100.00;102509.69;5349068;26;21033;-71
2024/04/13 07:31:27;;;;;;;16.63;3.63;;;;;;;13.52;100.00;102470.75;5350282;26;20317;-71
2024/04/13 07:33:52;;;;;;;19.60;4.07;;;;;;;13.45;100.00;102440.16;5353341;26;20907;-71
2024/04/13 07:36:18;;;;;;;14.37;3.47;;;;;;;13.54;100.00;102438.25;5359493;26;20254;-71
2024/04/13 07:38:44;;;;;;;12.20;3.80;;;;;;;13.80;100.00;102440.56;5370063;26;20324;-71
2024/04/13 07:41:10;;;;;;;10.90;3.60;;;;;;;13.57;100.00;102357.84;5389848;26;21703;-71
2024/04/13 07:43:35;;;;;;;14.40;3.90;;;;;;;13.86;100.00;102379.66;5359355;26;20297;-72
2024/04/13 07:46:00;;;;;;;15.63;3.83;;;;;;;13.71;100.00;102342.72;5341785;26;20297;-71
2024/04/13 07:48:26;;;;;;;17.03;4.07;;;;;;;13.61;100.00;102309.78;5360072;26;20285;-70
2024/04/13 07:50:52;;;;;;;15.50;3.20;;;;;;;13.37;100.00;102242.63;5351736;26;20255;-71
2024/04/13 07:53:17;;;;;;;15.23;4.10;;;;;;;13.78;100.00;102308.59;5354315;26;20453;-72
2024/04/13 07:55:43;;;;;;;20.47;4.40;;;;;;;11.35;100.00;101912.88;5388966;21;20498;-73
2024/04/13 07:58:08;;;;;;;20.43;3.53;;;;;;;12.32;100.00;102039.53;5342737;26;20251;-73
2024/04/13 08:00:34;;;;;;;15.93;4.23;;;;;;;13.96;100.00;102272.31;5343617;26;20252;-72
2024/04/13 08:03:01;;;;;;;16.00;5.03;;;;;;;14.02;100.00;102279.66;5346006;26;20707;-73
2024/04/13 08:05:26;;;;;;;19.47;6.40;;;;;;;14.05;100.00;102248.78;5340107;26;20290;-72
2024/04/13 08:07:53;;;;;;;12.10;3.70;;;;;;;14.17;100.00;102236.47;5338419;26;21103;-73
2024/04/13 08:10:19;;;;;;;19.27;3.90;;;;;;;14.15;100.00;102203.47;5310367;26;20243;-72
2024/04/13 08:12:45;;;;;;;19.10;4.33;;;;;;;14.05;100.00;102186.72;5342869;26;20488;-72
2024/04/13 08:15:11;;;;;;;15.47;2.90;;;;;;;13.92;100.00;102195.50;5337405;26;20547;-72
2024/04/13 08:17:37;;;;;;;15.53;5.73;;;;;;;14.32;100.00;102233.75;5316999;26;21110;-72
2024/04/13 08:20:04;;;;;;;11.27;3.70;;;;;;;14.12;100.00;102214.66;5342690;26;20281;-72
2024/04/13 08:22:30;;;;;;;15.77;3.67;;;;;;;14.10;100.00;102222.91;5321709;26;20849;-71
2024/04/13 08:24:55;;;;;;;16.50;3.60;;;;;;;13.81;100.00;102164.44;5316589;26;20599;-73
2024/04/13 08:27:21;;;;;;;9.47;2.70;;;;;;;14.22;100.00;102207.06;5343944;26;20259;-73
2024/04/13 08:29:50;;;;;;;17.73;7.93;;;;;;;13.71;100.00;102102.72;5344740;26;20251;-72
2024/04/13 08:32:15;;;;;;;46.20;27.70;;;;;;;14.12;100.00;102150.72;5304114;26;20333;-72
2024/04/13 08:34:41;;;;;;;24.53;7.10;;;;;;;14.42;100.00;102162.25;5340032;26;20533;-72
2024/04/13 08:37:07;;;;;;;15.83;3.47;;;;;;;14.61;100.00;102170.75;5338287;26;20801;-73
2024/04/13 08:39:35;;;;;;;13.40;3.50;;;;;;;14.76;100.00;102173.41;5337298;26;20298;-73
2024/04/13 08:42:08;;;;;;;11.50;3.63;;;;;;;14.65;100.00;102110.78;5345607;26;20627;-74
2024/04/13 08:44:38;;;;;;;15.67;3.80;;;;;;;14.28;100.00;102005.78;5302246;26;21708;-71
2024/04/13 08:47:05;;;;;;;12.07;3.27;;;;;;;14.90;100.00;102113.91;5301825;26;20474;-71
2024/04/13 08:49:31;;;;;;;10.80;3.37;;;;;;;14.84;100.00;102095.78;5301063;26;20481;-71
2024/04/13 08:51:57;;;;;;;13.33;3.40;;;;;;;14.45;100.00;102002.59;5340103;26;21274;-71
2024/04/13 08:54:23;;;;;;;13.37;3.20;;;;;;;14.90;100.00;102056.34;5327696;26;20340;-71
2024/04/13 08:56:49;;;;;;;14.90;3.67;;;;;;;14.99;100.00;102055.16;5319392;26;20475;-72
2024/04/13 08:59:16;;;;;;;12.53;2.93;;;;;;;14.80;100.00;102029.66;5324493;26;20537;-72
2024/04/13 09:01:48;;;;;;;11.83;3.13;;;;;;;14.75;100.00;102015.06;5328400;26;20286;-72
2024/04/13 09:04:14;;;;;;;14.50;3.30;;;;;;;14.95;100.00;102048.44;5334034;26;20474;-72
2024/04/13 09:06:42;;;;;;;12.03;3.17;;;;;;;14.85;100.00;102037.19;5337867;26;21175;-72
2024/04/13 09:09:08;;;;;;;12.93;3.80;;;;;;;14.98;100.00;102044.53;5335670;26;20458;-72
2024/04/13 09:11:37;;;;;;;8.80;3.00;;;;;;;15.01;100.00;102034.16;5336421;26;20538;-72
2024/04/13 09:14:04;;;;;;;15.83;3.90;;;;;;;14.80;100.00;101981.03;5308507;26;20477;-72
2024/04/13 09:16:32;;;;;;;9.60;3.10;;;;;;;15.23;100.00;102021.38;5306964;26;20546;-72
2024/04/13 09:18:57;;;;;;;10.80;3.40;;;;;;;15.32;100.00;102027.44;5338262;26;20476;-72
2024/04/13 09:21:24;;;;;;;11.10;2.90;;;;;;;15.16;100.00;102023.22;5302510;26;20476;-72
2024/04/13 09:23:50;;;;;;;11.30;3.00;;;;;;;15.33;100.00;102012.88;5307823;26;20258;-73
2024/04/13 09:26:16;;;;;;;13.43;3.13;;;;;;;15.22;100.00;101968.38;5343049;26;20667;-73
2024/04/13 09:28:43;;;;;;;10.53;2.97;;;;;;;15.33;100.00;102013.75;5342670;26;20311;-73
2024/04/13 09:31:11;;;;;;;10.67;3.23;;;;;;;15.40;100.00;101975.09;5347783;26;20261;-73
2024/04/13 09:33:40;;;;;;;12.33;3.47;;;;;;;15.38;100.00;101976.09;5345038;26;20534;-76
2024/04/13 09:36:09;;;;;;;13.37;2.90;;;;;;;15.84;100.00;101981.88;5340395;26;20454;-72
2024/04/13 09:38:35;;;;;;;14.13;4.27;;;;;;;15.30;100.00;101933.06;5342930;26;20478;-73
2024/04/13 09:41:02;;;;;;;12.37;3.47;;;;;;;15.53;100.00;101980.53;5327196;26;20561;-73
2024/04/13 09:43:27;;;;;;;14.40;3.17;;;;;;;15.64;100.00;101985.34;5346213;26;20492;-73
2024/04/13 09:46:11;;;;;;;10.70;3.10;;;;;;;15.64;100.00;101968.28;5348107;26;20980;-74
2024/04/13 09:48:36;;;;;;;11.83;3.00;;;;;;;15.50;100.00;101924.16;5343482;26;20306;-73
2024/04/13 09:51:01;;;;;;;16.73;3.70;;;;;;;15.59;100.00;101971.59;5335185;26;21099;-73
2024/04/13 09:53:28;;;;;;;13.30;3.47;;;;;;;15.54;100.00;101941.66;5327817;26;20630;-72
2024/04/13 09:55:53;;;;;;;13.77;3.40;;;;;;;15.77;100.00;101979.16;5321335;26;20305;-73
2024/04/13 09:58:18;;;;;;;13.97;3.40;;;;;;;15.06;100.00;101871.44;5340073;26;20618;-74
2024/04/13 10:00:48;;;;;;;15.43;4.30;;;;;;;15.67;100.00;101973.28;5309085;26;20243;-73
2024/04/13 10:03:14;;;;;;;16.07;3.37;;;;;;;15.63;100.00;101972.03;5307604;26;20758;-73
2024/04/13 10:05:42;;;;;;;15.10;3.33;;;;;;;15.80;100.00;101979.59;5346150;26;20482;-73
2024/04/13 10:08:09;;;;;;;11.03;3.33;;;;;;;15.62;100.00;101913.56;5335799;26;20742;-73
2024/04/13 10:10:36;;;;;;;19.40;3.47;;;;;;;15.78;100.00;101897.78;5343985;26;20465;-73
2024/04/13 10:13:03;;;;;;;11.50;3.30;;;;;;;15.99;100.00;101912.16;5344488;26;20578;-73
2024/04/13 10:15:31;;;;;;;11.03;3.20;;;;;;;15.89;100.00;101920.69;5345515;26;21232;-72
2024/04/13 10:17:58;;;;;;;10.93;3.70;;;;;;;16.17;100.00;101966.50;5306363;26;20488;-73
2024/04/13 10:20:26;;;;;;;12.50;3.50;;;;;;;16.11;100.00;101963.78;5312843;26;20481;-73
2024/04/13 10:22:53;;;;;;;11.80;3.77;;;;;;;15.85;100.00;101907.78;5344759;26;20591;-73
2024/04/13 10:25:26;;;;;;;8.80;3.13;;;;;;;16.01;100.00;101912.78;5339811;26;20546;-73
2024/04/13 10:28:09;;;;;;;13.03;3.30;;;;;;;16.35;100.00;101951.50;5342785;26;20964;-74
2024/04/13 10:30:48;;;;;;;17.67;5.00;;;;;;;16.75;100.00;101963.09;5322418;26;20486;-74
2024/04/13 10:33:21;;;;;;;18.27;4.43;;;;;;;16.09;100.00;101895.50;5339063;26;20488;-75
2024/04/13 10:36:09;;;;;;;14.80;4.10;;;;;;;16.44;100.00;101971.91;5338573;26;20466;-74
2024/04/13 10:38:36;;;;;;;15.23;3.93;;;;;;;16.48;100.00;101965.84;5332604;26;20796;-75
2024/04/13 10:41:03;;;;;;;14.93;4.23;;;;;;;16.50;100.00;101946.69;5344649;26;20463;-75
2024/04/13 10:43:29;;;;;;;13.40;3.87;;;;;;;16.07;100.00;101893.00;5344310;26;20490;-75
2024/04/13 10:46:00;;;;;;;15.27;4.60;;;;;;;16.60;100.00;101944.34;5343933;26;20533;-74
2024/04/13 10:48:29;;;;;;;10.30;4.27;;;;;;;16.68;100.00;101941.41;5311259;26;20476;-75
2024/04/13 10:50:55;;;;;;;10.80;4.00;;;;;;;17.11;100.00;101937.34;5338671;26;20470;-74
2024/04/13 10:53:25;;;;;;;9.90;3.67;;;;;;;16.22;100.00;101795.31;5331464;26;20526;-75
2024/04/13 10:55:52;;;;;;;13.77;4.00;;;;;;;17.06;100.00;101943.41;5344008;26;20499;-74
2024/04/13 10:58:19;;;;;;;10.93;3.87;;;;;;;16.47;100.00;101877.53;5343416;26;20480;-75
2024/04/13 11:00:47;;;;;;;9.13;3.60;;;;;;;17.08;100.00;101921.50;5340560;26;20474;-75
2024/04/13 11:03:13;;;;;;;14.17;3.90;;;;;;;16.96;100.00;101925.94;5321901;26;20475;-75
2024/04/13 11:05:43;;;;;;;11.97;4.90;;;;;;;16.99;100.00;101945.31;5344726;26;20525;-75
2024/04/13 11:08:09;;;;;;;14.20;4.47;;;;;;;16.58;100.00;101886.03;5336739;26;20242;-75